sensor_id;sensor_type;location;lat;lon;timestamp;P1;durP1;ratioP1;P2;durP2;ratioP2
4049;SDS011;2039;50.894;6.888;2022-12-07T00:02:01;93.78;;;21.05;;
4049;SDS011;2039;50.894;6.888;2022-12-07T00:04:30;89.68;;;21.73;;
4049;SDS011;2039;50.894;6.888;2022-12-07T00:07:05;86.78;;;22.33;;
4049;SDS011;2039;50.894;6.888;2022-12-07T00:09:59;90.30;;;24.70;;
4049;SDS011;2039;50.894;6.888;2022-12-07T00:12:33;86.75;;;21.25;;
4049;SDS011;2039;50.894;6.888;2022-12-07T00:15:07;93.40;;;23.10;;
4049;SDS011;2039;50.894;6.888;2022-12-07T00:17:42;91.82;;;22.15;;
4049;SDS011;2039;50.894;6.888;2022-12-07T00:20:13;90.75;;;23.50;;
4049;SDS011;2039;50.894;6.888;2022-12-07T00:22:42;88.95;;;22.65;;
4049;SDS011;2039;50.894;6.888;2022-12-07T00:25:07;95.27;;;25.23;;
4049;SDS011;2039;50.894;6.888;2022-12-07T00:27:36;94.50;;;25.13;;
4049;SDS011;2039;50.894;6.888;2022-12-07T00:30:28;92.95;;;24.88;;
4049;SDS011;2039;50.894;6.888;2022-12-07T00:33:12;89.50;;;21.08;;
4049;SDS011;2039;50.894;6.888;2022-12-07T00:39:10;92.10;;;22.40;;
4049;SDS011;2039;50.894;6.888;2022-12-07T00:41:36;91.10;;;22.63;;
4049;SDS011;2039;50.894;6.888;2022-12-07T00:44:05;88.95;;;23.13;;
4049;SDS011;2039;50.894;6.888;2022-12-07T00:46:31;89.20;;;22.38;;
4049;SDS011;2039;50.894;6.888;2022-12-07T00:49:22;89.55;;;23.75;;
4049;SDS011;2039;50.894;6.888;2022-12-07T00:51:51;93.05;;;24.80;;
4049;SDS011;2039;50.894;6.888;2022-12-07T00:54:25;100.35;;;23.00;;
4049;SDS011;2039;50.894;6.888;2022-12-07T00:56:57;89.68;;;24.15;;
4049;SDS011;2039;50.894;6.888;2022-12-07T00:59:23;98.82;;;24.23;;
4049;SDS011;2039;50.894;6.888;2022-12-07T01:02:03;91.40;;;23.60;;
4049;SDS011;2039;50.894;6.888;2022-12-07T01:04:33;95.55;;;27.50;;
4049;SDS011;2039;50.894;6.888;2022-12-07T01:07:01;88.70;;;21.90;;
4049;SDS011;2039;50.894;6.888;2022-12-07T01:09:29;90.95;;;25.15;;
4049;SDS011;2039;50.894;6.888;2022-12-07T01:12:15;93.72;;;24.85;;
4049;SDS011;2039;50.894;6.888;2022-12-07T01:14:41;97.47;;;27.30;;
4049;SDS011;2039;50.894;6.888;2022-12-07T01:17:07;91.35;;;23.98;;
4049;SDS011;2039;50.894;6.888;2022-12-07T01:19:39;92.70;;;24.88;;
4049;SDS011;2039;50.894;6.888;2022-12-07T01:22:26;90.93;;;23.98;;
4049;SDS011;2039;50.894;6.888;2022-12-07T01:24:58;94.97;;;23.70;;
4049;SDS011;2039;50.894;6.888;2022-12-07T01:27:23;102.63;;;24.25;;
4049;SDS011;2039;50.894;6.888;2022-12-07T01:29:52;97.35;;;26.17;;
4049;SDS011;2039;50.894;6.888;2022-12-07T01:32:18;93.87;;;25.70;;
4049;SDS011;2039;50.894;6.888;2022-12-07T01:34:47;99.05;;;25.90;;
4049;SDS011;2039;50.894;6.888;2022-12-07T01:37:24;95.32;;;24.27;;
4049;SDS011;2039;50.894;6.888;2022-12-07T01:39:52;94.28;;;23.05;;
4049;SDS011;2039;50.894;6.888;2022-12-07T01:42:18;95.25;;;22.90;;
4049;SDS011;2039;50.894;6.888;2022-12-07T01:47:47;89.10;;;22.42;;
4049;SDS011;2039;50.894;6.888;2022-12-07T01:50:17;88.85;;;22.52;;
4049;SDS011;2039;50.894;6.888;2022-12-07T01:52:44;94.85;;;24.48;;
4049;SDS011;2039;50.894;6.888;2022-12-07T01:55:24;90.97;;;23.45;;
4049;SDS011;2039;50.894;6.888;2022-12-07T01:57:51;90.90;;;24.77;;
4049;SDS011;2039;50.894;6.888;2022-12-07T02:00:23;92.45;;;22.80;;
4049;SDS011;2039;50.894;6.888;2022-12-07T02:03:10;89.60;;;23.33;;
4049;SDS011;2039;50.894;6.888;2022-12-07T02:05:42;96.53;;;24.15;;
4049;SDS011;2039;50.894;6.888;2022-12-07T02:08:12;94.03;;;24.08;;
4049;SDS011;2039;50.894;6.888;2022-12-07T02:10:41;84.43;;;21.92;;
4049;SDS011;2039;50.894;6.888;2022-12-07T02:13:13;91.80;;;25.13;;
4049;SDS011;2039;50.894;6.888;2022-12-07T02:16:15;97.15;;;25.30;;
4049;SDS011;2039;50.894;6.888;2022-12-07T02:21:47;90.63;;;22.45;;
4049;SDS011;2039;50.894;6.888;2022-12-07T02:30:00;92.15;;;22.00;;
4049;SDS011;2039;50.894;6.888;2022-12-07T02:41:49;91.57;;;22.50;;
4049;SDS011;2039;50.894;6.888;2022-12-07T02:44:30;91.32;;;23.50;;
4049;SDS011;2039;50.894;6.888;2022-12-07T02:47:23;89.53;;;22.92;;
4049;SDS011;2039;50.894;6.888;2022-12-07T02:49:54;101.75;;;24.75;;
4049;SDS011;2039;50.894;6.888;2022-12-07T02:52:26;86.82;;;21.60;;
4049;SDS011;2039;50.894;6.888;2022-12-07T02:55:11;94.80;;;24.38;;
4049;SDS011;2039;50.894;6.888;2022-12-07T03:00:28;93.88;;;23.77;;
4049;SDS011;2039;50.894;6.888;2022-12-07T03:03:06;89.53;;;21.95;;
4049;SDS011;2039;50.894;6.888;2022-12-07T03:17:00;98.38;;;24.73;;
4049;SDS011;2039;50.894;6.888;2022-12-07T03:19:43;92.93;;;23.15;;
4049;SDS011;2039;50.894;6.888;2022-12-07T03:22:18;93.05;;;23.10;;
4049;SDS011;2039;50.894;6.888;2022-12-07T03:24:52;97.35;;;25.65;;
4049;SDS011;2039;50.894;6.888;2022-12-07T03:27:23;91.45;;;24.02;;
4049;SDS011;2039;50.894;6.888;2022-12-07T03:30:07;92.57;;;24.20;;
4049;SDS011;2039;50.894;6.888;2022-12-07T03:32:42;89.22;;;23.77;;
4049;SDS011;2039;50.894;6.888;2022-12-07T03:35:28;97.05;;;22.23;;
4049;SDS011;2039;50.894;6.888;2022-12-07T03:38:26;91.97;;;23.33;;
4049;SDS011;2039;50.894;6.888;2022-12-07T03:41:26;93.53;;;22.95;;
4049;SDS011;2039;50.894;6.888;2022-12-07T03:44:05;94.15;;;24.05;;
4049;SDS011;2039;50.894;6.888;2022-12-07T03:46:58;94.38;;;23.38;;
4049;SDS011;2039;50.894;6.888;2022-12-07T03:49:45;88.93;;;22.65;;
4049;SDS011;2039;50.894;6.888;2022-12-07T03:55:11;89.35;;;21.33;;
4049;SDS011;2039;50.894;6.888;2022-12-07T03:57:44;89.05;;;23.40;;
4049;SDS011;2039;50.894;6.888;2022-12-07T04:00:15;92.88;;;21.73;;
4049;SDS011;2039;50.894;6.888;2022-12-07T04:02:42;93.10;;;23.58;;
4049;SDS011;2039;50.894;6.888;2022-12-07T04:05:29;89.30;;;22.30;;
4049;SDS011;2039;50.894;6.888;2022-12-07T04:08:03;91.47;;;22.88;;
4049;SDS011;2039;50.894;6.888;2022-12-07T04:10:38;94.05;;;24.42;;
4049;SDS011;2039;50.894;6.888;2022-12-07T04:13:04;92.28;;;23.17;;
4049;SDS011;2039;50.894;6.888;2022-12-07T04:15:32;90.97;;;21.65;;
4049;SDS011;2039;50.894;6.888;2022-12-07T04:18:00;93.87;;;24.07;;
4049;SDS011;2039;50.894;6.888;2022-12-07T04:20:28;94.90;;;24.83;;
4049;SDS011;2039;50.894;6.888;2022-12-07T04:22:56;98.30;;;24.23;;
4049;SDS011;2039;50.894;6.888;2022-12-07T04:25:31;92.93;;;24.42;;
4049;SDS011;2039;50.894;6.888;2022-12-07T04:27:57;97.70;;;22.50;;
4049;SDS011;2039;50.894;6.888;2022-12-07T04:30:31;93.20;;;22.60;;
4049;SDS011;2039;50.894;6.888;2022-12-07T04:32:57;91.97;;;21.07;;
4049;SDS011;2039;50.894;6.888;2022-12-07T04:35:22;96.33;;;22.77;;
4049;SDS011;2039;50.894;6.888;2022-12-07T04:37:51;93.57;;;24.33;;
4049;SDS011;2039;50.894;6.888;2022-12-07T04:40:20;89.10;;;22.17;;
4049;SDS011;2039;50.894;6.888;2022-12-07T04:43:03;89.03;;;20.85;;
4049;SDS011;2039;50.894;6.888;2022-12-07T04:45:34;90.18;;;21.70;;
4049;SDS011;2039;50.894;6.888;2022-12-07T04:48:45;95.25;;;22.20;;
4049;SDS011;2039;50.894;6.888;2022-12-07T04:51:15;88.40;;;22.10;;
4049;SDS011;2039;50.894;6.888;2022-12-07T04:54:04;95.35;;;24.48;;
4049;SDS011;2039;50.894;6.888;2022-12-07T04:56:33;91.90;;;22.73;;
4049;SDS011;2039;50.894;6.888;2022-12-07T04:59:00;92.80;;;23.67;;
4049;SDS011;2039;50.894;6.888;2022-12-07T05:01:37;88.43;;;22.67;;
4049;SDS011;2039;50.894;6.888;2022-12-07T05:04:05;92.13;;;24.92;;
4049;SDS011;2039;50.894;6.888;2022-12-07T05:06:37;92.50;;;22.52;;
4049;SDS011;2039;50.894;6.888;2022-12-07T05:09:03;89.50;;;22.03;;
4049;SDS011;2039;50.894;6.888;2022-12-07T05:11:29;96.50;;;22.48;;
4049;SDS011;2039;50.894;6.888;2022-12-07T05:14:09;91.15;;;22.20;;
4049;SDS011;2039;50.894;6.888;2022-12-07T05:16:42;93.75;;;22.98;;
4049;SDS011;2039;50.894;6.888;2022-12-07T05:19:10;93.35;;;22.23;;
4049;SDS011;2039;50.894;6.888;2022-12-07T05:21:36;99.57;;;22.48;;
4049;SDS011;2039;50.894;6.888;2022-12-07T05:24:02;89.63;;;22.48;;
4049;SDS011;2039;50.894;6.888;2022-12-07T05:26:28;89.15;;;20.33;;
4049;SDS011;2039;50.894;6.888;2022-12-07T05:28:54;92.87;;;21.70;;
4049;SDS011;2039;50.894;6.888;2022-12-07T05:31:21;90.38;;;21.90;;
4049;SDS011;2039;50.894;6.888;2022-12-07T05:33:48;96.15;;;22.13;;
4049;SDS011;2039;50.894;6.888;2022-12-07T05:36:13;91.83;;;21.97;;
4049;SDS011;2039;50.894;6.888;2022-12-07T05:38:40;92.32;;;21.98;;
4049;SDS011;2039;50.894;6.888;2022-12-07T05:41:06;91.82;;;22.02;;
4049;SDS011;2039;50.894;6.888;2022-12-07T05:43:53;100.97;;;25.58;;
4049;SDS011;2039;50.894;6.888;2022-12-07T05:46:18;93.17;;;22.17;;
4049;SDS011;2039;50.894;6.888;2022-12-07T05:48:44;90.77;;;20.73;;
4049;SDS011;2039;50.894;6.888;2022-12-07T05:51:10;91.70;;;23.53;;
4049;SDS011;2039;50.894;6.888;2022-12-07T05:53:35;93.83;;;22.80;;
4049;SDS011;2039;50.894;6.888;2022-12-07T05:56:01;90.07;;;23.60;;
4049;SDS011;2039;50.894;6.888;2022-12-07T05:58:26;99.17;;;24.10;;
4049;SDS011;2039;50.894;6.888;2022-12-07T06:01:11;93.45;;;23.38;;
4049;SDS011;2039;50.894;6.888;2022-12-07T06:03:36;95.47;;;24.30;;
4049;SDS011;2039;50.894;6.888;2022-12-07T06:06:02;93.03;;;24.03;;
4049;SDS011;2039;50.894;6.888;2022-12-07T06:08:30;91.57;;;23.80;;
4049;SDS011;2039;50.894;6.888;2022-12-07T06:10:55;96.73;;;25.00;;
4049;SDS011;2039;50.894;6.888;2022-12-07T06:13:39;92.53;;;22.55;;
4049;SDS011;2039;50.894;6.888;2022-12-07T06:16:05;91.70;;;23.10;;
4049;SDS011;2039;50.894;6.888;2022-12-07T06:18:31;96.57;;;21.65;;
4049;SDS011;2039;50.894;6.888;2022-12-07T06:20:57;93.90;;;23.60;;
4049;SDS011;2039;50.894;6.888;2022-12-07T06:23:22;91.40;;;24.90;;
4049;SDS011;2039;50.894;6.888;2022-12-07T06:25:48;93.60;;;23.17;;
4049;SDS011;2039;50.894;6.888;2022-12-07T06:28:14;91.80;;;23.03;;
4049;SDS011;2039;50.894;6.888;2022-12-07T06:30:39;88.83;;;21.20;;
4049;SDS011;2039;50.894;6.888;2022-12-07T06:33:05;90.77;;;22.63;;
4049;SDS011;2039;50.894;6.888;2022-12-07T06:35:32;99.73;;;26.90;;
4049;SDS011;2039;50.894;6.888;2022-12-07T06:37:58;91.78;;;23.48;;
4049;SDS011;2039;50.894;6.888;2022-12-07T06:40:24;94.37;;;24.40;;
4049;SDS011;2039;50.894;6.888;2022-12-07T06:42:49;91.80;;;22.87;;
4049;SDS011;2039;50.894;6.888;2022-12-07T06:45:15;96.03;;;23.97;;
4049;SDS011;2039;50.894;6.888;2022-12-07T06:47:41;86.70;;;20.23;;
4049;SDS011;2039;50.894;6.888;2022-12-07T06:50:06;88.60;;;21.00;;
4049;SDS011;2039;50.894;6.888;2022-12-07T06:52:32;90.55;;;20.92;;
4049;SDS011;2039;50.894;6.888;2022-12-07T06:54:59;87.05;;;21.77;;
4049;SDS011;2039;50.894;6.888;2022-12-07T06:57:24;89.10;;;23.20;;
4049;SDS011;2039;50.894;6.888;2022-12-07T06:59:51;91.20;;;21.38;;
4049;SDS011;2039;50.894;6.888;2022-12-07T07:02:16;85.67;;;21.97;;
4049;SDS011;2039;50.894;6.888;2022-12-07T07:04:42;88.70;;;22.52;;
4049;SDS011;2039;50.894;6.888;2022-12-07T07:07:08;90.87;;;24.20;;
4049;SDS011;2039;50.894;6.888;2022-12-07T07:09:34;96.10;;;23.77;;
4049;SDS011;2039;50.894;6.888;2022-12-07T07:12:00;97.30;;;22.83;;
4049;SDS011;2039;50.894;6.888;2022-12-07T07:14:25;93.13;;;22.60;;
4049;SDS011;2039;50.894;6.888;2022-12-07T07:16:51;91.17;;;22.27;;
4049;SDS011;2039;50.894;6.888;2022-12-07T07:19:17;94.33;;;21.47;;
4049;SDS011;2039;50.894;6.888;2022-12-07T07:21:43;92.80;;;26.27;;
4049;SDS011;2039;50.894;6.888;2022-12-07T07:24:09;92.77;;;24.43;;
4049;SDS011;2039;50.894;6.888;2022-12-07T07:26:35;88.63;;;22.20;;
4049;SDS011;2039;50.894;6.888;2022-12-07T07:29:00;96.30;;;25.50;;
4049;SDS011;2039;50.894;6.888;2022-12-07T07:31:26;96.10;;;24.13;;
4049;SDS011;2039;50.894;6.888;2022-12-07T07:33:52;104.37;;;24.17;;
4049;SDS011;2039;50.894;6.888;2022-12-07T07:36:17;94.23;;;22.60;;
4049;SDS011;2039;50.894;6.888;2022-12-07T07:38:43;94.33;;;22.90;;
4049;SDS011;2039;50.894;6.888;2022-12-07T07:41:09;96.83;;;23.07;;
4049;SDS011;2039;50.894;6.888;2022-12-07T07:43:34;90.90;;;23.10;;
4049;SDS011;2039;50.894;6.888;2022-12-07T07:46:00;89.63;;;23.00;;
4049;SDS011;2039;50.894;6.888;2022-12-07T07:48:26;91.80;;;22.57;;
4049;SDS011;2039;50.894;6.888;2022-12-07T07:50:51;101.73;;;22.90;;
4049;SDS011;2039;50.894;6.888;2022-12-07T07:53:17;89.00;;;21.50;;
4049;SDS011;2039;50.894;6.888;2022-12-07T07:55:55;89.77;;;21.27;;
4049;SDS011;2039;50.894;6.888;2022-12-07T07:58:21;91.70;;;23.00;;
4049;SDS011;2039;50.894;6.888;2022-12-07T08:00:47;101.33;;;24.53;;
4049;SDS011;2039;50.894;6.888;2022-12-07T08:03:12;88.90;;;21.20;;
4049;SDS011;2039;50.894;6.888;2022-12-07T08:05:38;90.30;;;21.87;;
4049;SDS011;2039;50.894;6.888;2022-12-07T08:08:04;92.57;;;22.87;;
4049;SDS011;2039;50.894;6.888;2022-12-07T08:10:29;93.67;;;22.17;;
4049;SDS011;2039;50.894;6.888;2022-12-07T08:12:57;96.10;;;22.15;;
4049;SDS011;2039;50.894;6.888;2022-12-07T08:15:44;97.00;;;21.17;;
4049;SDS011;2039;50.894;6.888;2022-12-07T08:18:12;94.80;;;19.77;;
4049;SDS011;2039;50.894;6.888;2022-12-07T08:20:39;88.75;;;22.65;;
4049;SDS011;2039;50.894;6.888;2022-12-07T08:23:05;94.47;;;20.33;;
4049;SDS011;2039;50.894;6.888;2022-12-07T08:25:32;89.90;;;20.90;;
4049;SDS011;2039;50.894;6.888;2022-12-07T08:27:58;82.93;;;18.58;;
4049;SDS011;2039;50.894;6.888;2022-12-07T08:30:25;86.70;;;19.15;;
4049;SDS011;2039;50.894;6.888;2022-12-07T08:32:51;86.57;;;18.90;;
4049;SDS011;2039;50.894;6.888;2022-12-07T08:35:17;91.17;;;20.10;;
4049;SDS011;2039;50.894;6.888;2022-12-07T08:37:43;90.50;;;20.43;;
4049;SDS011;2039;50.894;6.888;2022-12-07T08:40:09;89.10;;;20.20;;
4049;SDS011;2039;50.894;6.888;2022-12-07T08:42:40;86.65;;;18.85;;
4049;SDS011;2039;50.894;6.888;2022-12-07T08:45:07;89.65;;;19.48;;
4049;SDS011;2039;50.894;6.888;2022-12-07T08:47:35;89.05;;;19.52;;
4049;SDS011;2039;50.894;6.888;2022-12-07T08:50:04;90.30;;;20.50;;
4049;SDS011;2039;50.894;6.888;2022-12-07T08:52:31;87.70;;;19.35;;
4049;SDS011;2039;50.894;6.888;2022-12-07T08:54:59;86.60;;;21.25;;
4049;SDS011;2039;50.894;6.888;2022-12-07T08:57:26;86.95;;;19.33;;
4049;SDS011;2039;50.894;6.888;2022-12-07T08:59:53;82.63;;;19.20;;
4049;SDS011;2039;50.894;6.888;2022-12-07T09:02:19;90.40;;;20.50;;
4049;SDS011;2039;50.894;6.888;2022-12-07T09:04:45;87.10;;;21.58;;
4049;SDS011;2039;50.894;6.888;2022-12-07T09:07:10;87.90;;;21.10;;
4049;SDS011;2039;50.894;6.888;2022-12-07T09:09:36;88.47;;;20.23;;
4049;SDS011;2039;50.894;6.888;2022-12-07T09:12:02;86.10;;;20.00;;
4049;SDS011;2039;50.894;6.888;2022-12-07T09:14:28;88.40;;;21.08;;
4049;SDS011;2039;50.894;6.888;2022-12-07T09:16:54;86.23;;;20.83;;
4049;SDS011;2039;50.894;6.888;2022-12-07T09:19:20;86.77;;;20.50;;
4049;SDS011;2039;50.894;6.888;2022-12-07T09:21:45;88.87;;;23.13;;
4049;SDS011;2039;50.894;6.888;2022-12-07T09:24:12;88.77;;;20.87;;
4049;SDS011;2039;50.894;6.888;2022-12-07T09:26:38;87.90;;;18.83;;
4049;SDS011;2039;50.894;6.888;2022-12-07T09:29:05;90.65;;;20.15;;
4049;SDS011;2039;50.894;6.888;2022-12-07T09:31:31;88.90;;;20.23;;
4049;SDS011;2039;50.894;6.888;2022-12-07T09:33:57;88.47;;;20.10;;
4049;SDS011;2039;50.894;6.888;2022-12-07T09:36:24;87.95;;;20.42;;
4049;SDS011;2039;50.894;6.888;2022-12-07T09:38:51;92.07;;;19.15;;
4049;SDS011;2039;50.894;6.888;2022-12-07T09:41:16;87.87;;;20.73;;
4049;SDS011;2039;50.894;6.888;2022-12-07T09:43:42;83.60;;;18.70;;
4049;SDS011;2039;50.894;6.888;2022-12-07T09:46:09;83.80;;;19.60;;
4049;SDS011;2039;50.894;6.888;2022-12-07T09:48:43;90.40;;;22.80;;
4049;SDS011;2039;50.894;6.888;2022-12-07T09:51:19;85.85;;;22.60;;
4049;SDS011;2039;50.894;6.888;2022-12-07T09:53:47;85.53;;;18.80;;
4049;SDS011;2039;50.894;6.888;2022-12-07T09:56:13;84.20;;;19.88;;
4049;SDS011;2039;50.894;6.888;2022-12-07T09:58:41;86.68;;;20.73;;
4049;SDS011;2039;50.894;6.888;2022-12-07T10:01:10;87.60;;;18.52;;
4049;SDS011;2039;50.894;6.888;2022-12-07T10:03:37;86.10;;;18.50;;
4049;SDS011;2039;50.894;6.888;2022-12-07T10:06:04;84.18;;;18.02;;
4049;SDS011;2039;50.894;6.888;2022-12-07T10:08:31;85.25;;;19.27;;
4049;SDS011;2039;50.894;6.888;2022-12-07T10:10:57;82.43;;;18.63;;
4049;SDS011;2039;50.894;6.888;2022-12-07T10:19:38;85.50;;;19.95;;
4049;SDS011;2039;50.894;6.888;2022-12-07T10:24:38;89.65;;;21.58;;
4049;SDS011;2039;50.894;6.888;2022-12-07T10:27:20;89.70;;;20.88;;
4049;SDS011;2039;50.894;6.888;2022-12-07T10:29:51;80.50;;;18.45;;
4049;SDS011;2039;50.894;6.888;2022-12-07T10:34:43;81.53;;;17.60;;
4049;SDS011;2039;50.894;6.888;2022-12-07T10:39:48;81.35;;;19.23;;
4049;SDS011;2039;50.894;6.888;2022-12-07T10:42:18;85.57;;;18.67;;
4049;SDS011;2039;50.894;6.888;2022-12-07T10:44:47;89.55;;;19.58;;
4049;SDS011;2039;50.894;6.888;2022-12-07T10:50:02;79.40;;;13.32;;
4049;SDS011;2039;50.894;6.888;2022-12-07T10:55:48;80.18;;;15.68;;
4049;SDS011;2039;50.894;6.888;2022-12-07T11:24:10;76.22;;;10.07;;
4049;SDS011;2039;50.894;6.888;2022-12-07T11:40:48;75.38;;;10.13;;
4049;SDS011;2039;50.894;6.888;2022-12-07T11:50:07;77.95;;;11.82;;
4049;SDS011;2039;50.894;6.888;2022-12-07T11:52:29;74.63;;;11.20;;
4049;SDS011;2039;50.894;6.888;2022-12-07T12:07:29;78.55;;;11.48;;
4049;SDS011;2039;50.894;6.888;2022-12-07T12:10:45;76.88;;;11.80;;
4049;SDS011;2039;50.894;6.888;2022-12-07T12:13:10;73.50;;;10.32;;
4049;SDS011;2039;50.894;6.888;2022-12-07T12:21:30;78.38;;;13.65;;
4049;SDS011;2039;50.894;6.888;2022-12-07T12:24:11;76.90;;;11.80;;
4049;SDS011;2039;50.894;6.888;2022-12-07T12:26:52;85.25;;;13.73;;
4049;SDS011;2039;50.894;6.888;2022-12-07T12:29:39;77.50;;;11.07;;
4049;SDS011;2039;50.894;6.888;2022-12-07T12:32:21;77.82;;;10.13;;
4049;SDS011;2039;50.894;6.888;2022-12-07T12:40:56;83.20;;;12.27;;
4049;SDS011;2039;50.894;6.888;2022-12-07T12:48:54;79.90;;;10.43;;
4049;SDS011;2039;50.894;6.888;2022-12-07T12:51:40;80.35;;;10.00;;
4049;SDS011;2039;50.894;6.888;2022-12-07T12:54:12;73.88;;;9.82;;
4049;SDS011;2039;50.894;6.888;2022-12-07T13:01:53;76.68;;;11.07;;
4049;SDS011;2039;50.894;6.888;2022-12-07T13:04:55;80.82;;;11.75;;
4049;SDS011;2039;50.894;6.888;2022-12-07T13:15:35;76.32;;;11.07;;
4049;SDS011;2039;50.894;6.888;2022-12-07T13:21:00;82.45;;;12.48;;
4049;SDS011;2039;50.894;6.888;2022-12-07T13:26:22;77.72;;;11.95;;
4049;SDS011;2039;50.894;6.888;2022-12-07T13:31:58;76.82;;;12.10;;
4049;SDS011;2039;50.894;6.888;2022-12-07T13:34:33;79.90;;;11.60;;
4049;SDS011;2039;50.894;6.888;2022-12-07T13:40:12;83.78;;;12.35;;
4049;SDS011;2039;50.894;6.888;2022-12-07T13:42:44;82.53;;;12.32;;
4049;SDS011;2039;50.894;6.888;2022-12-07T13:45:31;80.35;;;11.30;;
4049;SDS011;2039;50.894;6.888;2022-12-07T13:51:16;77.82;;;11.82;;
4049;SDS011;2039;50.894;6.888;2022-12-07T13:54:09;81.55;;;12.23;;
4049;SDS011;2039;50.894;6.888;2022-12-07T13:56:40;77.32;;;11.18;;
4049;SDS011;2039;50.894;6.888;2022-12-07T13:59:24;78.38;;;12.68;;
4049;SDS011;2039;50.894;6.888;2022-12-07T14:02:01;74.65;;;11.20;;
4049;SDS011;2039;50.894;6.888;2022-12-07T14:04:31;82.05;;;11.98;;
4049;SDS011;2039;50.894;6.888;2022-12-07T14:07:28;76.15;;;12.70;;
4049;SDS011;2039;50.894;6.888;2022-12-07T14:10:00;77.07;;;11.38;;
4049;SDS011;2039;50.894;6.888;2022-12-07T14:12:36;75.63;;;11.32;;
4049;SDS011;2039;50.894;6.888;2022-12-07T14:15:28;76.05;;;12.38;;
4049;SDS011;2039;50.894;6.888;2022-12-07T14:21:25;76.60;;;12.77;;
4049;SDS011;2039;50.894;6.888;2022-12-07T14:24:10;79.13;;;11.30;;
4049;SDS011;2039;50.894;6.888;2022-12-07T14:26:52;72.20;;;11.40;;
4049;SDS011;2039;50.894;6.888;2022-12-07T14:29:39;74.20;;;11.13;;
4049;SDS011;2039;50.894;6.888;2022-12-07T14:32:18;73.55;;;11.27;;
4049;SDS011;2039;50.894;6.888;2022-12-07T14:34:54;80.18;;;11.75;;
4049;SDS011;2039;50.894;6.888;2022-12-07T14:37:40;72.35;;;10.63;;
4049;SDS011;2039;50.894;6.888;2022-12-07T14:40:20;72.20;;;9.85;;
4049;SDS011;2039;50.894;6.888;2022-12-07T14:46:28;78.05;;;11.27;;
4049;SDS011;2039;50.894;6.888;2022-12-07T14:54:50;73.45;;;11.57;;
4049;SDS011;2039;50.894;6.888;2022-12-07T14:57:19;77.38;;;11.73;;
4049;SDS011;2039;50.894;6.888;2022-12-07T14:59:56;75.07;;;11.80;;
4049;SDS011;2039;50.894;6.888;2022-12-07T15:02:27;73.03;;;11.18;;
4049;SDS011;2039;50.894;6.888;2022-12-07T15:04:55;74.00;;;10.40;;
4049;SDS011;2039;50.894;6.888;2022-12-07T15:08:04;73.00;;;11.63;;
4049;SDS011;2039;50.894;6.888;2022-12-07T15:11:37;75.85;;;11.70;;
4049;SDS011;2039;50.894;6.888;2022-12-07T15:14:26;72.75;;;10.25;;
4049;SDS011;2039;50.894;6.888;2022-12-07T15:17:01;74.07;;;12.48;;
4049;SDS011;2039;50.894;6.888;2022-12-07T15:19:55;82.25;;;13.73;;
4049;SDS011;2039;50.894;6.888;2022-12-07T15:22:21;78.57;;;12.70;;
4049;SDS011;2039;50.894;6.888;2022-12-07T15:24:54;73.68;;;11.25;;
4049;SDS011;2039;50.894;6.888;2022-12-07T15:27:34;74.97;;;11.45;;
4049;SDS011;2039;50.894;6.888;2022-12-07T15:30:05;76.70;;;12.20;;
4049;SDS011;2039;50.894;6.888;2022-12-07T15:32:39;77.90;;;12.85;;
4049;SDS011;2039;50.894;6.888;2022-12-07T15:35:17;81.63;;;11.48;;
4049;SDS011;2039;50.894;6.888;2022-12-07T15:40:52;75.25;;;10.10;;
4049;SDS011;2039;50.894;6.888;2022-12-07T15:43:21;74.40;;;10.37;;
4049;SDS011;2039;50.894;6.888;2022-12-07T15:46:05;74.07;;;10.90;;
4049;SDS011;2039;50.894;6.888;2022-12-07T15:48:46;75.73;;;11.03;;
4049;SDS011;2039;50.894;6.888;2022-12-07T15:51:14;75.60;;;10.55;;
4049;SDS011;2039;50.894;6.888;2022-12-07T15:57:47;80.28;;;11.23;;
4049;SDS011;2039;50.894;6.888;2022-12-07T16:00:45;72.82;;;9.60;;
4049;SDS011;2039;50.894;6.888;2022-12-07T16:03:24;76.82;;;10.82;;
4049;SDS011;2039;50.894;6.888;2022-12-07T16:06:16;74.10;;;10.32;;
4049;SDS011;2039;50.894;6.888;2022-12-07T16:08:43;76.18;;;9.85;;
4049;SDS011;2039;50.894;6.888;2022-12-07T16:11:36;76.28;;;9.20;;
4049;SDS011;2039;50.894;6.888;2022-12-07T16:14:05;75.05;;;10.65;;
4049;SDS011;2039;50.894;6.888;2022-12-07T16:16:31;78.63;;;10.07;;
4049;SDS011;2039;50.894;6.888;2022-12-07T16:18:57;71.10;;;7.70;;
4049;SDS011;2039;50.894;6.888;2022-12-07T16:21:30;66.57;;;7.35;;
4049;SDS011;2039;50.894;6.888;2022-12-07T16:24:02;68.80;;;7.07;;
4049;SDS011;2039;50.894;6.888;2022-12-07T16:26:28;68.57;;;7.97;;
4049;SDS011;2039;50.894;6.888;2022-12-07T16:28:57;67.88;;;6.20;;
4049;SDS011;2039;50.894;6.888;2022-12-07T16:31:55;67.93;;;6.30;;
4049;SDS011;2039;50.894;6.888;2022-12-07T16:34:24;74.07;;;5.90;;
4049;SDS011;2039;50.894;6.888;2022-12-07T16:37:03;69.90;;;5.45;;
4049;SDS011;2039;50.894;6.888;2022-12-07T16:39:49;70.15;;;6.10;;
4049;SDS011;2039;50.894;6.888;2022-12-07T16:42:18;68.97;;;6.90;;
4049;SDS011;2039;50.894;6.888;2022-12-07T16:45:05;66.55;;;5.80;;
4049;SDS011;2039;50.894;6.888;2022-12-07T16:47:31;67.25;;;6.00;;
4049;SDS011;2039;50.894;6.888;2022-12-07T16:50:00;65.40;;;5.65;;
4049;SDS011;2039;50.894;6.888;2022-12-07T16:52:37;70.55;;;7.00;;
4049;SDS011;2039;50.894;6.888;2022-12-07T16:55:27;67.45;;;6.50;;
4049;SDS011;2039;50.894;6.888;2022-12-07T17:03:39;70.70;;;8.13;;
4049;SDS011;2039;50.894;6.888;2022-12-07T17:08:53;75.68;;;8.93;;
4049;SDS011;2039;50.894;6.888;2022-12-07T17:11:25;72.90;;;9.02;;
4049;SDS011;2039;50.894;6.888;2022-12-07T17:13:52;73.55;;;8.35;;
4049;SDS011;2039;50.894;6.888;2022-12-07T17:16:36;71.63;;;9.77;;
4049;SDS011;2039;50.894;6.888;2022-12-07T17:19:03;75.50;;;9.70;;
4049;SDS011;2039;50.894;6.888;2022-12-07T17:21:30;76.25;;;10.05;;
4049;SDS011;2039;50.894;6.888;2022-12-07T17:23:58;81.38;;;12.10;;
4049;SDS011;2039;50.894;6.888;2022-12-07T17:26:25;74.10;;;10.77;;
4049;SDS011;2039;50.894;6.888;2022-12-07T17:28:51;76.05;;;11.48;;
4049;SDS011;2039;50.894;6.888;2022-12-07T17:31:18;79.70;;;12.70;;
4049;SDS011;2039;50.894;6.888;2022-12-07T17:33:45;78.68;;;15.23;;
4049;SDS011;2039;50.894;6.888;2022-12-07T17:36:11;79.03;;;12.43;;
4049;SDS011;2039;50.894;6.888;2022-12-07T17:38:47;79.25;;;12.77;;
4049;SDS011;2039;50.894;6.888;2022-12-07T17:41:16;81.35;;;14.23;;
4049;SDS011;2039;50.894;6.888;2022-12-07T17:44:03;80.43;;;14.25;;
4049;SDS011;2039;50.894;6.888;2022-12-07T17:46:31;77.20;;;12.48;;
4049;SDS011;2039;50.894;6.888;2022-12-07T17:48:57;79.10;;;13.43;;
4049;SDS011;2039;50.894;6.888;2022-12-07T17:51:23;74.43;;;10.95;;
4049;SDS011;2039;50.894;6.888;2022-12-07T17:54:08;75.55;;;11.77;;
4049;SDS011;2039;50.894;6.888;2022-12-07T17:56:34;78.90;;;12.10;;
4049;SDS011;2039;50.894;6.888;2022-12-07T17:59:00;76.60;;;12.00;;
4049;SDS011;2039;50.894;6.888;2022-12-07T18:01:26;73.90;;;10.87;;
4049;SDS011;2039;50.894;6.888;2022-12-07T18:03:52;78.37;;;11.73;;
4049;SDS011;2039;50.894;6.888;2022-12-07T18:06:19;80.75;;;10.80;;
4049;SDS011;2039;50.894;6.888;2022-12-07T18:08:45;77.13;;;11.65;;
4049;SDS011;2039;50.894;6.888;2022-12-07T18:11:11;80.83;;;12.13;;
4049;SDS011;2039;50.894;6.888;2022-12-07T18:13:37;76.40;;;12.90;;
4049;SDS011;2039;50.894;6.888;2022-12-07T18:16:06;79.73;;;11.93;;
4049;SDS011;2039;50.894;6.888;2022-12-07T18:18:35;78.90;;;13.10;;
4049;SDS011;2039;50.894;6.888;2022-12-07T18:21:02;84.82;;;13.35;;
4049;SDS011;2039;50.894;6.888;2022-12-07T18:23:41;78.00;;;11.90;;
4049;SDS011;2039;50.894;6.888;2022-12-07T18:26:14;80.65;;;12.73;;
4049;SDS011;2039;50.894;6.888;2022-12-07T18:28:42;81.90;;;12.55;;
4049;SDS011;2039;50.894;6.888;2022-12-07T18:31:09;76.00;;;13.07;;
4049;SDS011;2039;50.894;6.888;2022-12-07T18:33:36;77.88;;;13.30;;